UTA7775 VQPR-USRO
Flight info
| Callsign | UTA7775 |
|---|---|
| Flight time | N/A |
| Altitude | 38000 |
| Route | OLGUT Y3 SQH HTN KAMUD L147 BALVU L135 IZIMA P984 SOMOL B236 OMONA N990 ML T660 NWK G715 BOGRI BOGRI1J |
| Aircraft | B738/M-SDE2E3FGHIRWXY/LB1 |
Departure
| Time | N/A |
|---|---|
| Airport | Paro International Airport (VQPR) |
Arrival
| Time | 2026-04-21 21:03 |
|---|---|
| Airport | Noyabrsk Airport (USRO) |
| Time | Latitude | Longitude | Altitude | Speed | Heading |
|---|---|---|---|---|---|
| 2026-04-21 17:41 | 43.97094 | 83.94734 | 37982 ft | 417 kts | 329° |
| 2026-04-21 17:42 | 44.07252 | 83.87300 | 37981 ft | 417 kts | 329° |
| 2026-04-21 17:43 | 44.12404 | 83.83532 | 37984 ft | 419 kts | 329° |
| 2026-04-21 17:43 | 44.17566 | 83.79737 | 37977 ft | 420 kts | 329° |
| 2026-04-21 17:44 | 44.22733 | 83.75917 | 37965 ft | 421 kts | 329° |
| 2026-04-21 17:44 | 44.27906 | 83.72100 | 37980 ft | 420 kts | 329° |
| 2026-04-21 17:45 | 44.33083 | 83.68298 | 37969 ft | 421 kts | 329° |
| 2026-04-21 17:45 | 44.38269 | 83.64500 | 37972 ft | 421 kts | 329° |
| 2026-04-21 17:46 | 44.43413 | 83.60705 | 37965 ft | 421 kts | 329° |
| 2026-04-21 17:46 | 44.48591 | 83.56864 | 37968 ft | 421 kts | 329° |
| 2026-04-21 17:47 | 44.53765 | 83.53013 | 37977 ft | 421 kts | 329° |
| 2026-04-21 17:47 | 44.58946 | 83.49148 | 37980 ft | 422 kts | 329° |
| 2026-04-21 17:48 | 44.64134 | 83.45269 | 37980 ft | 422 kts | 329° |
| 2026-04-21 17:48 | 44.69316 | 83.41389 | 37970 ft | 422 kts | 329° |
| 2026-04-21 17:49 | 44.74254 | 83.37051 | 37952 ft | 415 kts | 309° |
| 2026-04-21 17:49 | 44.75809 | 83.33681 | 37979 ft | 412 kts | 292° |
| 2026-04-21 17:49 | 44.76598 | 83.29825 | 37987 ft | 411 kts | 278° |
| 2026-04-21 17:50 | 44.76726 | 83.25800 | 37960 ft | 413 kts | 266° |
| 2026-04-21 17:50 | 44.76441 | 83.21782 | 37967 ft | 412 kts | 271° |
| 2026-04-21 17:50 | 44.76813 | 83.17815 | 37995 ft | 410 kts | 284° |
| 2026-04-21 17:50 | 44.77525 | 83.13928 | 37958 ft | 410 kts | 284° |
| 2026-04-21 17:51 | 44.78890 | 83.06120 | 37968 ft | 411 kts | 283° |
| 2026-04-21 17:51 | 44.80106 | 82.98247 | 37965 ft | 412 kts | 282° |
| 2026-04-21 17:52 | 44.81277 | 82.90393 | 37969 ft | 413 kts | 282° |
| 2026-04-21 17:52 | 44.82461 | 82.82483 | 37956 ft | 413 kts | 282° |
| 2026-04-21 17:53 | 44.83659 | 82.74501 | 37965 ft | 414 kts | 282° |
| 2026-04-21 17:53 | 44.84841 | 82.66624 | 37959 ft | 414 kts | 282° |
| 2026-04-21 17:54 | 44.86025 | 82.58691 | 37966 ft | 414 kts | 282° |
| 2026-04-21 17:54 | 44.87201 | 82.50748 | 37957 ft | 414 kts | 282° |
| 2026-04-21 17:55 | 44.88372 | 82.42807 | 37968 ft | 414 kts | 282° |
| 2026-04-21 17:55 | 44.89540 | 82.34862 | 37954 ft | 413 kts | 282° |
| 2026-04-21 17:56 | 44.90701 | 82.26923 | 37959 ft | 413 kts | 282° |
| 2026-04-21 17:56 | 44.91855 | 82.18984 | 37971 ft | 413 kts | 281° |
| 2026-04-21 17:57 | 44.93004 | 82.11040 | 37957 ft | 413 kts | 281° |
| 2026-04-21 17:57 | 44.94147 | 82.03094 | 37968 ft | 413 kts | 281° |
| 2026-04-21 17:58 | 44.95284 | 81.95149 | 37965 ft | 413 kts | 281° |
| 2026-04-21 17:58 | 44.96408 | 81.87201 | 37962 ft | 413 kts | 281° |
| 2026-04-21 17:59 | 44.97519 | 81.79255 | 37949 ft | 412 kts | 281° |
| 2026-04-21 17:59 | 44.98637 | 81.71332 | 37958 ft | 412 kts | 281° |
| 2026-04-21 18:00 | 44.99762 | 81.63399 | 37950 ft | 411 kts | 281° |
| 2026-04-21 18:00 | 45.00872 | 81.55475 | 37953 ft | 411 kts | 281° |
| 2026-04-21 18:01 | 45.01971 | 81.47563 | 37952 ft | 410 kts | 281° |
| 2026-04-21 18:01 | 45.03063 | 81.39640 | 37957 ft | 411 kts | 281° |
| 2026-04-21 18:02 | 45.04150 | 81.31714 | 37958 ft | 411 kts | 281° |
| 2026-04-21 18:02 | 45.05278 | 81.24027 | 37946 ft | 411 kts | 287° |
| 2026-04-21 18:03 | 45.07645 | 81.16674 | 37964 ft | 412 kts | 296° |
| 2026-04-21 18:03 | 45.10295 | 81.09471 | 37957 ft | 413 kts | 296° |
| 2026-04-21 18:04 | 45.12905 | 81.02288 | 37938 ft | 413 kts | 295° |
| 2026-04-21 18:04 | 45.15518 | 80.95027 | 37961 ft | 413 kts | 295° |
| 2026-04-21 18:05 | 45.18118 | 80.87758 | 37947 ft | 414 kts | 295° |
| 2026-04-21 18:05 | 45.20719 | 80.80465 | 37942 ft | 415 kts | 295° |
| 2026-04-21 18:06 | 45.23322 | 80.73149 | 37946 ft | 416 kts | 295° |
| 2026-04-21 18:06 | 45.25923 | 80.65814 | 37947 ft | 416 kts | 295° |
| 2026-04-21 18:07 | 45.28527 | 80.58455 | 37945 ft | 417 kts | 295° |
| 2026-04-21 18:07 | 45.31124 | 80.51091 | 37938 ft | 417 kts | 295° |
| 2026-04-21 18:08 | 45.33710 | 80.43721 | 37941 ft | 417 kts | 295° |
| 2026-04-21 18:08 | 45.36291 | 80.36341 | 37953 ft | 417 kts | 295° |
| 2026-04-21 18:09 | 45.38864 | 80.28957 | 37937 ft | 416 kts | 294° |
| 2026-04-21 18:09 | 45.41432 | 80.21580 | 37943 ft | 416 kts | 294° |
| 2026-04-21 18:10 | 45.44011 | 80.14210 | 37937 ft | 416 kts | 295° |
| 2026-04-21 18:10 | 45.46587 | 80.06824 | 37939 ft | 416 kts | 294° |
| 2026-04-21 18:11 | 45.49148 | 79.99439 | 37936 ft | 416 kts | 294° |
| 2026-04-21 18:11 | 45.51704 | 79.92036 | 37934 ft | 416 kts | 294° |
| 2026-04-21 18:12 | 45.54260 | 79.84637 | 37922 ft | 416 kts | 294° |
| 2026-04-21 18:12 | 45.56805 | 79.77235 | 37932 ft | 416 kts | 294° |
| 2026-04-21 18:13 | 45.59334 | 79.69818 | 37937 ft | 415 kts | 294° |
| 2026-04-21 18:13 | 45.61844 | 79.62448 | 37937 ft | 415 kts | 294° |
| 2026-04-21 18:14 | 45.65629 | 79.51314 | 37937 ft | 415 kts | 294° |
| 2026-04-21 18:15 | 45.68147 | 79.43886 | 37933 ft | 415 kts | 294° |
| 2026-04-21 18:15 | 45.70658 | 79.36454 | 37937 ft | 415 kts | 294° |
| 2026-04-21 18:16 | 45.73164 | 79.29021 | 37935 ft | 414 kts | 294° |
| 2026-04-21 18:16 | 45.75656 | 79.21570 | 37927 ft | 414 kts | 294° |
| 2026-04-21 18:17 | 45.78152 | 79.14157 | 37934 ft | 413 kts | 294° |
| 2026-04-21 18:17 | 45.80629 | 79.06738 | 37937 ft | 413 kts | 294° |
| 2026-04-21 18:18 | 45.83089 | 78.99305 | 37932 ft | 412 kts | 294° |
| 2026-04-21 18:18 | 45.85540 | 78.91883 | 37933 ft | 411 kts | 294° |
| 2026-04-21 18:19 | 45.87995 | 78.84470 | 37937 ft | 411 kts | 294° |
| 2026-04-21 18:19 | 45.90427 | 78.77118 | 37946 ft | 408 kts | 294° |
| 2026-04-21 18:20 | 45.92821 | 78.69842 | 37922 ft | 399 kts | 294° |
| 2026-04-21 18:20 | 45.94796 | 78.63794 | 37934 ft | 399 kts | 294° |
| 2026-04-21 18:21 | 45.97535 | 78.55394 | 37936 ft | 399 kts | 294° |
| 2026-04-21 18:21 | 45.99895 | 78.48171 | 37935 ft | 399 kts | 294° |
| 2026-04-21 18:22 | 46.02253 | 78.40942 | 37931 ft | 399 kts | 294° |
| 2026-04-21 18:22 | 46.04224 | 78.34863 | 37938 ft | 400 kts | 294° |
| 2026-04-21 18:23 | 46.06554 | 78.27644 | 37939 ft | 401 kts | 294° |
| 2026-04-21 18:23 | 46.08904 | 78.20351 | 37938 ft | 402 kts | 294° |
| 2026-04-21 18:24 | 46.11260 | 78.13054 | 37937 ft | 402 kts | 294° |
| 2026-04-21 18:24 | 46.13616 | 78.05732 | 37936 ft | 402 kts | 294° |
| 2026-04-21 18:25 | 46.15963 | 77.98408 | 37936 ft | 403 kts | 294° |
| 2026-04-21 18:25 | 46.18312 | 77.91073 | 37937 ft | 402 kts | 293° |
| 2026-04-21 18:26 | 46.20658 | 77.83747 | 37935 ft | 402 kts | 294° |
| 2026-04-21 18:26 | 46.23008 | 77.76420 | 37937 ft | 402 kts | 293° |
| 2026-04-21 18:27 | 46.25451 | 77.69167 | 37907 ft | 404 kts | 305° |
| 2026-04-21 18:27 | 46.27430 | 77.66276 | 37948 ft | 409 kts | 319° |
| 2026-04-21 18:27 | 46.29889 | 77.64145 | 37939 ft | 415 kts | 330° |
| 2026-04-21 18:27 | 46.32645 | 77.62788 | 37924 ft | 425 kts | 345° |
| 2026-04-21 18:28 | 46.35615 | 77.62429 | 37953 ft | 431 kts | 353° |
| 2026-04-21 18:28 | 46.41645 | 77.62443 | 37939 ft | 434 kts | 354° |
| 2026-04-21 18:29 | 46.47692 | 77.62523 | 37933 ft | 435 kts | 354° |
| 2026-04-21 18:29 | 46.53743 | 77.62510 | 37933 ft | 435 kts | 354° |
| 2026-04-21 18:30 | 46.59759 | 77.62456 | 37935 ft | 435 kts | 354° |
| 2026-04-21 18:30 | 46.65859 | 77.62397 | 37936 ft | 435 kts | 354° |
| 2026-04-21 18:31 | 46.71877 | 77.62341 | 37935 ft | 436 kts | 354° |
| 2026-04-21 18:31 | 46.77948 | 77.62288 | 37937 ft | 437 kts | 354° |
| 2026-04-21 18:32 | 46.84028 | 77.62234 | 37934 ft | 437 kts | 354° |
| 2026-04-21 18:32 | 46.90102 | 77.62177 | 37937 ft | 437 kts | 354° |
| 2026-04-21 18:33 | 46.96189 | 77.62118 | 37934 ft | 437 kts | 354° |
| 2026-04-21 18:33 | 47.02274 | 77.62061 | 37922 ft | 437 kts | 354° |
| 2026-04-21 18:34 | 47.08355 | 77.62002 | 37927 ft | 437 kts | 354° |
| 2026-04-21 18:34 | 47.14444 | 77.61943 | 37927 ft | 438 kts | 354° |
| 2026-04-21 18:35 | 47.19503 | 77.61894 | 37928 ft | 438 kts | 354° |
| 2026-04-21 18:35 | 47.26631 | 77.61828 | 37922 ft | 438 kts | 354° |
| 2026-04-21 18:36 | 47.32735 | 77.61769 | 37917 ft | 439 kts | 354° |
| 2026-04-21 18:36 | 47.38849 | 77.61707 | 37917 ft | 440 kts | 355° |
| 2026-04-21 18:37 | 47.44927 | 77.61648 | 37925 ft | 440 kts | 354° |
| 2026-04-21 18:37 | 47.51056 | 77.61587 | 37926 ft | 441 kts | 355° |
| 2026-04-21 18:38 | 47.57193 | 77.61527 | 37926 ft | 441 kts | 355° |
| 2026-04-21 18:38 | 47.63332 | 77.61468 | 37924 ft | 441 kts | 355° |
| 2026-04-21 18:39 | 47.69475 | 77.61409 | 37924 ft | 442 kts | 355° |
| 2026-04-21 18:39 | 47.75632 | 77.61346 | 37927 ft | 442 kts | 355° |
| 2026-04-21 18:40 | 47.81787 | 77.61287 | 37923 ft | 443 kts | 355° |
| 2026-04-21 18:40 | 47.86952 | 77.61236 | 37925 ft | 443 kts | 355° |
| 2026-04-21 18:41 | 47.94112 | 77.61165 | 37926 ft | 443 kts | 355° |
| 2026-04-21 18:41 | 48.00267 | 77.61102 | 37927 ft | 443 kts | 355° |
| 2026-04-21 18:42 | 48.06424 | 77.61042 | 37919 ft | 442 kts | 355° |
| 2026-04-21 18:42 | 48.12582 | 77.60981 | 37930 ft | 442 kts | 355° |
| 2026-04-21 18:43 | 48.18742 | 77.60919 | 37927 ft | 443 kts | 355° |
| 2026-04-21 18:43 | 48.24909 | 77.60856 | 37927 ft | 443 kts | 355° |
| 2026-04-21 18:44 | 48.31079 | 77.60793 | 37927 ft | 444 kts | 355° |
| 2026-04-21 18:44 | 48.37253 | 77.60731 | 37927 ft | 444 kts | 355° |
| 2026-04-21 18:45 | 48.43423 | 77.60669 | 37931 ft | 444 kts | 355° |
| 2026-04-21 18:45 | 48.49595 | 77.60606 | 37924 ft | 444 kts | 355° |
| 2026-04-21 18:46 | 48.55769 | 77.60541 | 37927 ft | 444 kts | 355° |
| 2026-04-21 18:46 | 48.61949 | 77.60477 | 37922 ft | 444 kts | 355° |
| 2026-04-21 18:47 | 48.68075 | 77.60413 | 37927 ft | 443 kts | 355° |
| 2026-04-21 18:47 | 48.74276 | 77.60298 | 37927 ft | 443 kts | 354° |
| 2026-04-21 18:48 | 48.80389 | 77.60062 | 37926 ft | 443 kts | 354° |
| 2026-04-21 18:48 | 48.86552 | 77.59816 | 37922 ft | 443 kts | 354° |
| 2026-04-21 18:49 | 48.92710 | 77.59586 | 37928 ft | 443 kts | 354° |
| 2026-04-21 18:49 | 48.97872 | 77.59398 | 37925 ft | 443 kts | 354° |
| 2026-04-21 18:50 | 49.05027 | 77.59137 | 37926 ft | 443 kts | 354° |
| 2026-04-21 18:50 | 49.11189 | 77.58911 | 37926 ft | 443 kts | 354° |
| 2026-04-21 18:51 | 49.17352 | 77.58684 | 37927 ft | 443 kts | 354° |
| 2026-04-21 18:51 | 49.23518 | 77.58455 | 37924 ft | 443 kts | 354° |
| 2026-04-21 18:52 | 49.29682 | 77.58228 | 37928 ft | 443 kts | 354° |
| 2026-04-21 18:52 | 49.35853 | 77.58003 | 37926 ft | 444 kts | 354° |
| 2026-04-21 18:53 | 49.42032 | 77.57777 | 37927 ft | 444 kts | 354° |
| 2026-04-21 18:53 | 49.48214 | 77.57548 | 37927 ft | 444 kts | 354° |
| 2026-04-21 18:54 | 49.54396 | 77.57318 | 37925 ft | 445 kts | 354° |
| 2026-04-21 18:54 | 49.60585 | 77.57088 | 37926 ft | 445 kts | 354° |
| 2026-04-21 18:55 | 49.65732 | 77.56895 | 37918 ft | 445 kts | 354° |
| 2026-04-21 18:55 | 49.72978 | 77.56622 | 37915 ft | 446 kts | 354° |
| 2026-04-21 18:56 | 49.79130 | 77.56393 | 37918 ft | 446 kts | 354° |
| 2026-04-21 18:56 | 49.85330 | 77.56159 | 37915 ft | 446 kts | 354° |
| 2026-04-21 18:57 | 49.91540 | 77.55923 | 37915 ft | 446 kts | 354° |
| 2026-04-21 18:57 | 49.97745 | 77.55688 | 37917 ft | 446 kts | 354° |
| 2026-04-21 18:58 | 50.03918 | 77.55070 | 37920 ft | 442 kts | 348° |
| 2026-04-21 18:58 | 50.10002 | 77.53709 | 37921 ft | 442 kts | 347° |
| 2026-04-21 18:59 | 50.16087 | 77.52316 | 37918 ft | 442 kts | 347° |
| 2026-04-21 18:59 | 50.22176 | 77.51002 | 37928 ft | 442 kts | 348° |
| 2026-04-21 19:00 | 50.28275 | 77.49714 | 37922 ft | 442 kts | 348° |
| 2026-04-21 19:00 | 50.34367 | 77.48423 | 37923 ft | 442 kts | 348° |
| 2026-04-21 19:01 | 50.40467 | 77.47125 | 37915 ft | 442 kts | 348° |
| 2026-04-21 19:01 | 50.46562 | 77.45826 | 37909 ft | 442 kts | 348° |
| 2026-04-21 19:02 | 50.52660 | 77.44519 | 37905 ft | 442 kts | 348° |
| 2026-04-21 19:02 | 50.58752 | 77.43209 | 37907 ft | 442 kts | 347° |
| 2026-04-21 19:03 | 50.64836 | 77.41897 | 37909 ft | 441 kts | 348° |
| 2026-04-21 19:03 | 50.70921 | 77.40585 | 37909 ft | 441 kts | 348° |
| 2026-04-21 19:04 | 50.76999 | 77.39271 | 37905 ft | 441 kts | 347° |
| 2026-04-21 19:04 | 50.83074 | 77.37953 | 37908 ft | 440 kts | 347° |
| 2026-04-21 19:05 | 50.89145 | 77.36636 | 37907 ft | 440 kts | 347° |
| 2026-04-21 19:05 | 50.95172 | 77.35322 | 37900 ft | 440 kts | 347° |
| 2026-04-21 19:06 | 51.01241 | 77.33991 | 37900 ft | 440 kts | 347° |
| 2026-04-21 19:06 | 51.07313 | 77.32660 | 37899 ft | 440 kts | 347° |
| 2026-04-21 19:07 | 51.13375 | 77.31330 | 37900 ft | 440 kts | 347° |
| 2026-04-21 19:07 | 51.19448 | 77.29989 | 37901 ft | 441 kts | 347° |
| 2026-04-21 19:08 | 51.25521 | 77.28645 | 37896 ft | 441 kts | 347° |
| 2026-04-21 19:08 | 51.31595 | 77.27308 | 37898 ft | 441 kts | 347° |
| 2026-04-21 19:09 | 51.37673 | 77.25956 | 37900 ft | 441 kts | 347° |
| 2026-04-21 19:09 | 51.43754 | 77.24605 | 37898 ft | 441 kts | 347° |
| 2026-04-21 19:10 | 51.49821 | 77.23251 | 37897 ft | 440 kts | 347° |
| 2026-04-21 19:10 | 51.54871 | 77.22115 | 37891 ft | 441 kts | 347° |
| 2026-04-21 19:11 | 51.60936 | 77.20751 | 37888 ft | 440 kts | 347° |
| 2026-04-21 19:11 | 51.67005 | 77.19387 | 37888 ft | 440 kts | 347° |
| 2026-04-21 19:12 | 51.73077 | 77.18019 | 37889 ft | 441 kts | 348° |
| 2026-04-21 19:12 | 51.79189 | 77.17001 | 37891 ft | 442 kts | 349° |
| 2026-04-21 19:13 | 51.85305 | 77.15940 | 37887 ft | 442 kts | 348° |
| 2026-04-21 19:13 | 51.91417 | 77.14815 | 37891 ft | 442 kts | 349° |
| 2026-04-21 19:14 | 51.97527 | 77.13711 | 37887 ft | 442 kts | 349° |
| 2026-04-21 19:14 | 52.03643 | 77.12616 | 37890 ft | 442 kts | 348° |
| 2026-04-21 19:15 | 52.09764 | 77.11567 | 37889 ft | 443 kts | 350° |
| 2026-04-21 19:15 | 52.15917 | 77.10839 | 37890 ft | 444 kts | 351° |
| 2026-04-21 19:16 | 52.22083 | 77.10180 | 37891 ft | 444 kts | 351° |
| 2026-04-21 19:16 | 52.28238 | 77.09484 | 37884 ft | 443 kts | 351° |
| 2026-04-21 19:17 | 52.37424 | 77.08394 | 37890 ft | 443 kts | 351° |
| 2026-04-21 19:17 | 52.43684 | 77.07632 | 37901 ft | 453 kts | 351° |
| 2026-04-21 19:18 | 52.49903 | 77.06885 | 37632 ft | 446 kts | 351° |
| 2026-04-21 19:18 | 52.52981 | 77.06521 | 37528 ft | 440 kts | 351° |
| 2026-04-21 19:18 | 52.55995 | 77.06167 | 37220 ft | 430 kts | 351° |
| 2026-04-21 19:19 | 52.58982 | 77.05807 | 36955 ft | 432 kts | 350° |
| 2026-04-21 19:19 | 52.61997 | 77.05434 | 36945 ft | 439 kts | 350° |
| 2026-04-21 19:19 | 52.68189 | 77.04771 | 36898 ft | 453 kts | 354° |
| 2026-04-21 19:20 | 52.74474 | 77.04393 | 36881 ft | 449 kts | 352° |
| 2026-04-21 19:20 | 52.80656 | 77.03830 | 36879 ft | 441 kts | 352° |
| 2026-04-21 19:21 | 52.86776 | 77.03275 | 36887 ft | 440 kts | 352° |
| 2026-04-21 19:21 | 52.92888 | 77.02750 | 36889 ft | 440 kts | 352° |
| 2026-04-21 19:22 | 52.98997 | 77.02238 | 36891 ft | 440 kts | 352° |
| 2026-04-21 19:22 | 53.05107 | 77.01731 | 36889 ft | 440 kts | 352° |
| 2026-04-21 19:23 | 53.11223 | 77.01223 | 36889 ft | 440 kts | 352° |
| 2026-04-21 19:23 | 53.17337 | 77.00711 | 36890 ft | 440 kts | 352° |
| 2026-04-21 19:24 | 53.23458 | 77.00196 | 36890 ft | 440 kts | 352° |
| 2026-04-21 19:24 | 53.29582 | 76.99679 | 36890 ft | 441 kts | 352° |
| 2026-04-21 19:25 | 53.35709 | 76.99162 | 36888 ft | 441 kts | 351° |
| 2026-04-21 19:25 | 53.41838 | 76.98644 | 36891 ft | 441 kts | 351° |
| 2026-04-21 19:26 | 53.47928 | 76.98127 | 36894 ft | 441 kts | 351° |
| 2026-04-21 19:26 | 53.54061 | 76.97606 | 36899 ft | 441 kts | 351° |
| 2026-04-21 19:27 | 53.60194 | 76.97082 | 36903 ft | 441 kts | 351° |
| 2026-04-21 19:27 | 53.66326 | 76.96555 | 36897 ft | 441 kts | 351° |
| 2026-04-21 19:28 | 53.72451 | 76.96031 | 36901 ft | 441 kts | 351° |
| 2026-04-21 19:28 | 53.78580 | 76.95504 | 36892 ft | 441 kts | 351° |
| 2026-04-21 19:29 | 53.84703 | 76.94975 | 36895 ft | 441 kts | 351° |
| 2026-04-21 19:29 | 53.90825 | 76.94445 | 36897 ft | 440 kts | 351° |
| 2026-04-21 19:30 | 53.96941 | 76.93913 | 36895 ft | 440 kts | 351° |
| 2026-04-21 19:30 | 54.03063 | 76.93380 | 36899 ft | 440 kts | 351° |
| 2026-04-21 19:31 | 54.09176 | 76.92846 | 36899 ft | 440 kts | 351° |
| 2026-04-21 19:31 | 54.15280 | 76.92312 | 36901 ft | 439 kts | 351° |
| 2026-04-21 19:32 | 54.21384 | 76.91775 | 36900 ft | 439 kts | 351° |
| 2026-04-21 19:32 | 54.27483 | 76.91238 | 36894 ft | 439 kts | 351° |
| 2026-04-21 19:33 | 54.33576 | 76.90699 | 36900 ft | 438 kts | 351° |
| 2026-04-21 19:33 | 54.39666 | 76.90159 | 36900 ft | 438 kts | 351° |
| 2026-04-21 19:34 | 54.45754 | 76.89617 | 36896 ft | 438 kts | 351° |
| 2026-04-21 19:34 | 54.51834 | 76.89075 | 36901 ft | 438 kts | 351° |
| 2026-04-21 19:35 | 54.60964 | 76.88256 | 36898 ft | 438 kts | 351° |
| 2026-04-21 19:36 | 54.67050 | 76.87712 | 36895 ft | 438 kts | 351° |
| 2026-04-21 19:36 | 54.73134 | 76.87163 | 36901 ft | 437 kts | 351° |
| 2026-04-21 19:37 | 54.79165 | 76.86618 | 36899 ft | 437 kts | 350° |
| 2026-04-21 19:37 | 54.85277 | 76.86063 | 36896 ft | 437 kts | 351° |
| 2026-04-21 19:38 | 54.91309 | 76.85517 | 36900 ft | 437 kts | 350° |
| 2026-04-21 19:38 | 54.96400 | 76.85053 | 36895 ft | 437 kts | 350° |
| 2026-04-21 19:39 | 55.03449 | 76.84406 | 36893 ft | 437 kts | 350° |
| 2026-04-21 19:39 | 55.09514 | 76.83850 | 36904 ft | 436 kts | 350° |
| 2026-04-21 19:40 | 55.15572 | 76.83292 | 36911 ft | 436 kts | 350° |
| 2026-04-21 19:40 | 55.21636 | 76.82731 | 36907 ft | 437 kts | 350° |
| 2026-04-21 19:41 | 55.27700 | 76.82170 | 36920 ft | 436 kts | 350° |
| 2026-04-21 19:41 | 55.33762 | 76.81608 | 36915 ft | 436 kts | 350° |
| 2026-04-21 19:42 | 55.39829 | 76.81043 | 36914 ft | 436 kts | 350° |
| 2026-04-21 19:42 | 55.45892 | 76.80476 | 36921 ft | 436 kts | 350° |
| 2026-04-21 19:43 | 55.51962 | 76.79906 | 36924 ft | 437 kts | 350° |
| 2026-04-21 19:43 | 55.58026 | 76.79336 | 36920 ft | 437 kts | 350° |
| 2026-04-21 19:44 | 55.64089 | 76.78764 | 36916 ft | 437 kts | 350° |
| 2026-04-21 19:44 | 55.70115 | 76.78194 | 36913 ft | 436 kts | 350° |
| 2026-04-21 19:45 | 55.76181 | 76.77618 | 36928 ft | 436 kts | 350° |
| 2026-04-21 19:45 | 55.82238 | 76.77040 | 36929 ft | 436 kts | 350° |
| 2026-04-21 19:46 | 55.88294 | 76.76462 | 36921 ft | 436 kts | 350° |
| 2026-04-21 19:46 | 55.94346 | 76.75883 | 36931 ft | 435 kts | 350° |
| 2026-04-21 19:47 | 56.00386 | 76.75301 | 36929 ft | 435 kts | 350° |
| 2026-04-21 19:47 | 56.06430 | 76.74721 | 36936 ft | 434 kts | 350° |
| 2026-04-21 19:48 | 56.12463 | 76.74137 | 36936 ft | 434 kts | 350° |
| 2026-04-21 19:48 | 56.18491 | 76.73548 | 36935 ft | 434 kts | 349° |
| 2026-04-21 19:49 | 56.24518 | 76.72959 | 36934 ft | 434 kts | 350° |
| 2026-04-21 19:49 | 56.30535 | 76.72374 | 36938 ft | 432 kts | 350° |
| 2026-04-21 19:50 | 56.35528 | 76.71886 | 36944 ft | 432 kts | 350° |
| 2026-04-21 19:50 | 56.42548 | 76.71198 | 36946 ft | 432 kts | 349° |
| 2026-04-21 19:51 | 56.48546 | 76.70609 | 36944 ft | 431 kts | 349° |
| 2026-04-21 19:51 | 56.54538 | 76.70017 | 36950 ft | 431 kts | 349° |
| 2026-04-21 19:52 | 56.60526 | 76.69421 | 36954 ft | 431 kts | 349° |
| 2026-04-21 19:52 | 56.66510 | 76.68825 | 36955 ft | 431 kts | 349° |
| 2026-04-21 19:53 | 56.72501 | 76.68228 | 36953 ft | 431 kts | 350° |
| 2026-04-21 19:53 | 56.78451 | 76.67636 | 36945 ft | 432 kts | 349° |
| 2026-04-21 19:54 | 56.84452 | 76.67029 | 36944 ft | 432 kts | 349° |
| 2026-04-21 19:54 | 56.90450 | 76.66424 | 36946 ft | 432 kts | 349° |
| 2026-04-21 19:55 | 56.96444 | 76.65817 | 36954 ft | 431 kts | 349° |
| 2026-04-21 19:55 | 57.02439 | 76.65208 | 36955 ft | 431 kts | 349° |
| 2026-04-21 19:56 | 57.08427 | 76.64600 | 36962 ft | 431 kts | 349° |
| 2026-04-21 19:56 | 57.14409 | 76.63990 | 36962 ft | 430 kts | 349° |
| 2026-04-21 19:57 | 57.20382 | 76.63377 | 36964 ft | 429 kts | 349° |
| 2026-04-21 19:57 | 57.26343 | 76.62725 | 36972 ft | 429 kts | 349° |
| 2026-04-21 19:58 | 57.32306 | 76.62159 | 36973 ft | 429 kts | 350° |
| 2026-04-21 19:58 | 57.37258 | 76.61696 | 36979 ft | 429 kts | 350° |
| 2026-04-21 19:59 | 57.43210 | 76.61080 | 36982 ft | 428 kts | 349° |
| 2026-04-21 19:59 | 57.49169 | 76.60407 | 36991 ft | 429 kts | 349° |
| 2026-04-21 20:00 | 57.55128 | 76.59750 | 36991 ft | 429 kts | 349° |
| 2026-04-21 20:00 | 57.61093 | 76.59148 | 36997 ft | 429 kts | 350° |
| 2026-04-21 20:01 | 57.67061 | 76.58563 | 37002 ft | 429 kts | 349° |
| 2026-04-21 20:01 | 57.73022 | 76.57929 | 37009 ft | 429 kts | 349° |
| 2026-04-21 20:02 | 57.78982 | 76.57280 | 37008 ft | 429 kts | 349° |
| 2026-04-21 20:02 | 57.84936 | 76.56637 | 37015 ft | 429 kts | 349° |
| 2026-04-21 20:03 | 57.90894 | 76.56001 | 37020 ft | 429 kts | 349° |
| 2026-04-21 20:03 | 57.96852 | 76.55360 | 37034 ft | 429 kts | 349° |
| 2026-04-21 20:04 | 58.02807 | 76.54723 | 37034 ft | 429 kts | 349° |
| 2026-04-21 20:04 | 58.08759 | 76.54086 | 37038 ft | 428 kts | 349° |
| 2026-04-21 20:05 | 58.14713 | 76.53447 | 37041 ft | 428 kts | 349° |
| 2026-04-21 20:05 | 58.20651 | 76.52802 | 37041 ft | 427 kts | 349° |
| 2026-04-21 20:06 | 58.26580 | 76.52155 | 37057 ft | 427 kts | 349° |
| 2026-04-21 20:06 | 58.32469 | 76.51513 | 37054 ft | 427 kts | 349° |
| 2026-04-21 20:07 | 58.38392 | 76.50869 | 37062 ft | 426 kts | 349° |
| 2026-04-21 20:07 | 58.44303 | 76.50221 | 37066 ft | 426 kts | 349° |
| 2026-04-21 20:08 | 58.50216 | 76.49567 | 37075 ft | 426 kts | 349° |
| 2026-04-21 20:08 | 58.56129 | 76.48914 | 37075 ft | 425 kts | 349° |
| 2026-04-21 20:09 | 58.62033 | 76.48260 | 37084 ft | 425 kts | 349° |
| 2026-04-21 20:09 | 58.67933 | 76.47605 | 37098 ft | 424 kts | 349° |
| 2026-04-21 20:10 | 58.73824 | 76.46945 | 37107 ft | 424 kts | 349° |
| 2026-04-21 20:10 | 58.79716 | 76.46284 | 37101 ft | 424 kts | 349° |
| 2026-04-21 20:11 | 58.85599 | 76.45624 | 37108 ft | 423 kts | 349° |
| 2026-04-21 20:11 | 58.91475 | 76.44962 | 37111 ft | 423 kts | 349° |
| 2026-04-21 20:12 | 58.97357 | 76.44298 | 37117 ft | 423 kts | 349° |
| 2026-04-21 20:12 | 59.03225 | 76.43632 | 37125 ft | 422 kts | 349° |
| 2026-04-21 20:13 | 59.09093 | 76.42964 | 37118 ft | 422 kts | 349° |
| 2026-04-21 20:13 | 59.14963 | 76.42294 | 37124 ft | 422 kts | 349° |
| 2026-04-21 20:14 | 59.20825 | 76.41621 | 37132 ft | 422 kts | 349° |
| 2026-04-21 20:14 | 59.26680 | 76.40947 | 37128 ft | 421 kts | 349° |
| 2026-04-21 20:15 | 59.32531 | 76.40271 | 37136 ft | 421 kts | 349° |
| 2026-04-21 20:15 | 59.38376 | 76.39594 | 37138 ft | 420 kts | 349° |
| 2026-04-21 20:16 | 59.44172 | 76.38919 | 37140 ft | 420 kts | 349° |
| 2026-04-21 20:16 | 59.50006 | 76.38238 | 37141 ft | 420 kts | 349° |
| 2026-04-21 20:17 | 59.55833 | 76.37558 | 37146 ft | 419 kts | 349° |
| 2026-04-21 20:17 | 59.61652 | 76.36875 | 37152 ft | 419 kts | 349° |
| 2026-04-21 20:18 | 59.66483 | 76.36306 | 37146 ft | 419 kts | 349° |
| 2026-04-21 20:18 | 59.73273 | 76.35503 | 37147 ft | 417 kts | 349° |
| 2026-04-21 20:19 | 59.79074 | 76.34816 | 37159 ft | 417 kts | 349° |
| 2026-04-21 20:19 | 59.84868 | 76.34116 | 37157 ft | 418 kts | 349° |
| 2026-04-21 20:20 | 59.90670 | 76.33424 | 37158 ft | 418 kts | 350° |
| 2026-04-21 20:20 | 59.96486 | 76.32732 | 37158 ft | 419 kts | 350° |
| 2026-04-21 20:21 | 60.02311 | 76.32028 | 37156 ft | 419 kts | 349° |
| 2026-04-21 20:21 | 60.08126 | 76.31316 | 37170 ft | 419 kts | 349° |
| 2026-04-21 20:22 | 60.13944 | 76.30609 | 37160 ft | 419 kts | 350° |
| 2026-04-21 20:22 | 60.22667 | 76.29555 | 37164 ft | 419 kts | 349° |
| 2026-04-21 20:23 | 60.28439 | 76.28854 | 37173 ft | 417 kts | 350° |
| 2026-04-21 20:23 | 60.34268 | 76.28141 | 37176 ft | 416 kts | 349° |
| 2026-04-21 20:24 | 60.40041 | 76.27426 | 37174 ft | 416 kts | 350° |
| 2026-04-21 20:24 | 60.45779 | 76.26716 | 37175 ft | 416 kts | 350° |
| 2026-04-21 20:25 | 60.51555 | 76.25999 | 37175 ft | 416 kts | 350° |
| 2026-04-21 20:25 | 60.57344 | 76.25277 | 37181 ft | 419 kts | 350° |
| 2026-04-21 20:26 | 60.60267 | 76.24910 | 36887 ft | 420 kts | 350° |
| 2026-04-21 20:26 | 60.63123 | 76.24566 | 36536 ft | 401 kts | 349° |
| 2026-04-21 20:26 | 60.65848 | 76.24248 | 36279 ft | 385 kts | 349° |
| 2026-04-21 20:26 | 60.68497 | 76.23925 | 36028 ft | 381 kts | 349° |
| 2026-04-21 20:27 | 60.71160 | 76.23580 | 35795 ft | 386 kts | 349° |
| 2026-04-21 20:27 | 60.73859 | 76.23224 | 35557 ft | 390 kts | 348° |
| 2026-04-21 20:27 | 60.76558 | 76.22878 | 35304 ft | 386 kts | 348° |
| 2026-04-21 20:27 | 60.79226 | 76.22553 | 35051 ft | 382 kts | 349° |
| 2026-04-21 20:28 | 60.81867 | 76.22242 | 34793 ft | 378 kts | 348° |
| 2026-04-21 20:28 | 60.84486 | 76.21932 | 34556 ft | 377 kts | 348° |
| 2026-04-21 20:28 | 60.87104 | 76.21612 | 34313 ft | 376 kts | 348° |
| 2026-04-21 20:28 | 60.89710 | 76.21275 | 34062 ft | 375 kts | 348° |
| 2026-04-21 20:29 | 60.92305 | 76.20924 | 33817 ft | 374 kts | 348° |
| 2026-04-21 20:29 | 60.94901 | 76.20564 | 33570 ft | 373 kts | 347° |
| 2026-04-21 20:29 | 60.97467 | 76.20211 | 33322 ft | 373 kts | 347° |
| 2026-04-21 20:29 | 61.00063 | 76.19865 | 33077 ft | 374 kts | 347° |
| 2026-04-21 20:30 | 61.02656 | 76.19535 | 32828 ft | 374 kts | 347° |
| 2026-04-21 20:30 | 61.05259 | 76.19215 | 32582 ft | 375 kts | 347° |
| 2026-04-21 20:30 | 61.07864 | 76.18901 | 32333 ft | 376 kts | 347° |
| 2026-04-21 20:30 | 61.10450 | 76.18595 | 32068 ft | 369 kts | 347° |
| 2026-04-21 20:31 | 61.13036 | 76.18273 | 31841 ft | 377 kts | 347° |
| 2026-04-21 20:31 | 61.15685 | 76.17903 | 31599 ft | 383 kts | 347° |
| 2026-04-21 20:31 | 61.18342 | 76.17532 | 31344 ft | 380 kts | 347° |
| 2026-04-21 20:31 | 61.20904 | 76.17202 | 31083 ft | 369 kts | 347° |
| 2026-04-21 20:32 | 61.23465 | 76.16881 | 30824 ft | 360 kts | 346° |
| 2026-04-21 20:32 | 61.25931 | 76.16572 | 30565 ft | 350 kts | 346° |
| 2026-04-21 20:32 | 61.28334 | 76.16269 | 30312 ft | 343 kts | 345° |
| 2026-04-21 20:32 | 61.30690 | 76.15970 | 30056 ft | 335 kts | 345° |
| 2026-04-21 20:33 | 61.32990 | 76.15676 | 29796 ft | 328 kts | 344° |
| 2026-04-21 20:33 | 61.35213 | 76.15373 | 29540 ft | 322 kts | 344° |
| 2026-04-21 20:33 | 61.37453 | 76.15049 | 29305 ft | 325 kts | 344° |
| 2026-04-21 20:33 | 61.39736 | 76.14694 | 29070 ft | 332 kts | 345° |
| 2026-04-21 20:34 | 61.42062 | 76.14326 | 28825 ft | 337 kts | 345° |
| 2026-04-21 20:34 | 61.44399 | 76.13986 | 28577 ft | 337 kts | 345° |
| 2026-04-21 20:34 | 61.46738 | 76.13687 | 28323 ft | 337 kts | 346° |
| 2026-04-21 20:34 | 61.49085 | 76.13423 | 28079 ft | 338 kts | 346° |
| 2026-04-21 20:35 | 61.51433 | 76.13170 | 27830 ft | 339 kts | 347° |
| 2026-04-21 20:35 | 61.53792 | 76.12898 | 27581 ft | 340 kts | 346° |
| 2026-04-21 20:35 | 61.56148 | 76.12593 | 27334 ft | 339 kts | 346° |
| 2026-04-21 20:35 | 61.58506 | 76.12267 | 27083 ft | 340 kts | 346° |
| 2026-04-21 20:36 | 61.60867 | 76.11912 | 26835 ft | 340 kts | 346° |
| 2026-04-21 20:36 | 61.63230 | 76.11553 | 26600 ft | 341 kts | 346° |
| 2026-04-21 20:36 | 61.65600 | 76.11205 | 26340 ft | 342 kts | 347° |
| 2026-04-21 20:36 | 61.67976 | 76.10886 | 26090 ft | 342 kts | 347° |
| 2026-04-21 20:37 | 61.70355 | 76.10595 | 25843 ft | 343 kts | 348° |
| 2026-04-21 20:37 | 61.72719 | 76.10318 | 25597 ft | 343 kts | 348° |
| 2026-04-21 20:37 | 61.75120 | 76.10033 | 25338 ft | 343 kts | 348° |
| 2026-04-21 20:37 | 61.77504 | 76.09732 | 25094 ft | 343 kts | 348° |
| 2026-04-21 20:38 | 61.79883 | 76.09405 | 24839 ft | 343 kts | 348° |
| 2026-04-21 20:38 | 61.82270 | 76.09056 | 24598 ft | 344 kts | 348° |
| 2026-04-21 20:38 | 61.84655 | 76.08697 | 24349 ft | 344 kts | 348° |
| 2026-04-21 20:38 | 61.87048 | 76.08342 | 24100 ft | 345 kts | 348° |
| 2026-04-21 20:39 | 61.89437 | 76.08016 | 23844 ft | 340 kts | 348° |
| 2026-04-21 20:39 | 61.91765 | 76.07729 | 23582 ft | 330 kts | 348° |
| 2026-04-21 20:39 | 61.93991 | 76.07465 | 23308 ft | 311 kts | 348° |
| 2026-04-21 20:39 | 61.96100 | 76.07206 | 23051 ft | 299 kts | 348° |
| 2026-04-21 20:40 | 61.98152 | 76.06936 | 22801 ft | 294 kts | 348° |
| 2026-04-21 20:40 | 62.00184 | 76.06659 | 22309 ft | 292 kts | 348° |
| 2026-04-21 20:40 | 62.02220 | 76.06374 | 21623 ft | 294 kts | 348° |
| 2026-04-21 20:40 | 62.04242 | 76.06091 | 20935 ft | 296 kts | 349° |
| 2026-04-21 20:41 | 62.06296 | 76.05805 | 20242 ft | 295 kts | 349° |
| 2026-04-21 20:41 | 62.08366 | 76.05522 | 19653 ft | 291 kts | 349° |
| 2026-04-21 20:41 | 62.10351 | 76.05255 | 19435 ft | 284 kts | 350° |
| 2026-04-21 20:41 | 62.12289 | 76.04988 | 19187 ft | 282 kts | 350° |
| 2026-04-21 20:42 | 62.14244 | 76.04714 | 18939 ft | 281 kts | 350° |
| 2026-04-21 20:42 | 62.16199 | 76.04435 | 18680 ft | 281 kts | 350° |
| 2026-04-21 20:42 | 62.18149 | 76.04156 | 18442 ft | 282 kts | 350° |
| 2026-04-21 20:42 | 62.20125 | 76.03872 | 18205 ft | 287 kts | 351° |
| 2026-04-21 20:43 | 62.22133 | 76.03584 | 17956 ft | 291 kts | 351° |
| 2026-04-21 20:43 | 62.24158 | 76.03304 | 17704 ft | 291 kts | 351° |
| 2026-04-21 20:43 | 62.26183 | 76.03035 | 17456 ft | 291 kts | 351° |
| 2026-04-21 20:43 | 62.28206 | 76.02768 | 17205 ft | 292 kts | 352° |
| 2026-04-21 20:44 | 62.30234 | 76.02495 | 16954 ft | 292 kts | 352° |
| 2026-04-21 20:44 | 62.32262 | 76.02212 | 16703 ft | 293 kts | 352° |
| 2026-04-21 20:44 | 62.34298 | 76.01918 | 16451 ft | 293 kts | 352° |
| 2026-04-21 20:44 | 62.36339 | 76.01621 | 16207 ft | 294 kts | 352° |
| 2026-04-21 20:45 | 62.38382 | 76.01327 | 15958 ft | 295 kts | 352° |
| 2026-04-21 20:45 | 62.40435 | 76.01036 | 15709 ft | 296 kts | 352° |
| 2026-04-21 20:45 | 62.42494 | 76.00750 | 15460 ft | 297 kts | 353° |
| 2026-04-21 20:45 | 62.44558 | 76.00465 | 15211 ft | 298 kts | 353° |
| 2026-04-21 20:46 | 62.46630 | 76.00179 | 14963 ft | 299 kts | 353° |
| 2026-04-21 20:46 | 62.48707 | 75.99889 | 14713 ft | 300 kts | 353° |
| 2026-04-21 20:46 | 62.50088 | 75.99695 | 14548 ft | 301 kts | 353° |
| 2026-04-21 20:46 | 62.52178 | 75.99396 | 14299 ft | 302 kts | 353° |
| 2026-04-21 20:47 | 62.54277 | 75.99093 | 14052 ft | 303 kts | 354° |
| 2026-04-21 20:47 | 62.56385 | 75.98789 | 13797 ft | 304 kts | 354° |
| 2026-04-21 20:47 | 62.58497 | 75.98486 | 13550 ft | 304 kts | 354° |
| 2026-04-21 20:47 | 62.60597 | 75.98194 | 13260 ft | 298 kts | 354° |
| 2026-04-21 20:48 | 62.62634 | 75.97916 | 12785 ft | 288 kts | 355° |
| 2026-04-21 20:48 | 62.64600 | 75.97644 | 12327 ft | 279 kts | 355° |
| 2026-04-21 20:48 | 62.66511 | 75.97370 | 11871 ft | 273 kts | 355° |
| 2026-04-21 20:48 | 62.68400 | 75.97087 | 11426 ft | 273 kts | 355° |
| 2026-04-21 20:49 | 62.70304 | 75.96801 | 10947 ft | 277 kts | 355° |
| 2026-04-21 20:49 | 62.72251 | 75.96516 | 10440 ft | 285 kts | 356° |
| 2026-04-21 20:49 | 62.74248 | 75.96235 | 9886 ft | 288 kts | 356° |
| 2026-04-21 20:49 | 62.76234 | 75.95959 | 9433 ft | 286 kts | 356° |
| 2026-04-21 20:50 | 62.78211 | 75.95678 | 8954 ft | 284 kts | 357° |
| 2026-04-21 20:50 | 62.80183 | 75.95393 | 8478 ft | 284 kts | 357° |
| 2026-04-21 20:50 | 62.82172 | 75.95097 | 7984 ft | 292 kts | 357° |
| 2026-04-21 20:50 | 62.84152 | 75.94060 | 7461 ft | 297 kts | 335° |
| 2026-04-21 20:51 | 62.85776 | 75.91400 | 7123 ft | 281 kts | 310° |
| 2026-04-21 20:51 | 62.86768 | 75.87945 | 6786 ft | 264 kts | 293° |
| 2026-04-21 20:51 | 62.87055 | 75.84026 | 6136 ft | 263 kts | 258° |
| 2026-04-21 20:51 | 62.86268 | 75.80508 | 5557 ft | 258 kts | 229° |
| 2026-04-21 20:52 | 62.85112 | 75.77530 | 4960 ft | 257 kts | 230° |
| 2026-04-21 20:52 | 62.84429 | 75.73886 | 4354 ft | 270 kts | 266° |
| 2026-04-21 20:52 | 62.84885 | 75.70032 | 4109 ft | 268 kts | 301° |
| 2026-04-21 20:52 | 62.86247 | 75.67238 | 3890 ft | 264 kts | 325° |
| 2026-04-21 20:53 | 62.87697 | 75.64831 | 3637 ft | 260 kts | 317° |
| 2026-04-21 20:53 | 62.88948 | 75.62023 | 3384 ft | 255 kts | 309° |
| 2026-04-21 20:53 | 62.90023 | 75.58966 | 3125 ft | 252 kts | 303° |
| 2026-04-21 20:53 | 62.90961 | 75.55802 | 2897 ft | 250 kts | 300° |
| 2026-04-21 20:54 | 62.91827 | 75.52500 | 2831 ft | 250 kts | 297° |
| 2026-04-21 20:54 | 62.92641 | 75.49133 | 2813 ft | 249 kts | 296° |
| 2026-04-21 20:54 | 62.93426 | 75.45734 | 2800 ft | 250 kts | 294° |
| 2026-04-21 20:54 | 62.94166 | 75.42286 | 2802 ft | 250 kts | 292° |
| 2026-04-21 20:55 | 62.94873 | 75.38813 | 2800 ft | 248 kts | 292° |
| 2026-04-21 20:55 | 62.95542 | 75.35516 | 2805 ft | 222 kts | 292° |
| 2026-04-21 20:55 | 62.96136 | 75.32595 | 2780 ft | 197 kts | 292° |
| 2026-04-21 20:55 | 62.96658 | 75.29998 | 2771 ft | 175 kts | 291° |
| 2026-04-21 20:56 | 62.97283 | 75.27907 | 2743 ft | 157 kts | 321° |
| 2026-04-21 20:56 | 62.98217 | 75.27073 | 2759 ft | 137 kts | 350° |
| 2026-04-21 20:56 | 62.99131 | 75.26421 | 2647 ft | 141 kts | 319° |
| 2026-04-21 20:56 | 62.99541 | 75.24577 | 2472 ft | 134 kts | 285° |
| 2026-04-21 20:57 | 63.00039 | 75.22867 | 2220 ft | 135 kts | 321° |
| 2026-04-21 20:57 | 63.00880 | 75.22070 | 1988 ft | 130 kts | 348° |
| 2026-04-21 20:57 | 63.01769 | 75.21616 | 1832 ft | 130 kts | 347° |
| 2026-04-21 20:57 | 63.02547 | 75.20734 | 1742 ft | 128 kts | 302° |
| 2026-04-21 20:58 | 63.02779 | 75.18882 | 1840 ft | 128 kts | 278° |
| 2026-04-21 20:58 | 63.02978 | 75.16934 | 1835 ft | 131 kts | 285° |
| 2026-04-21 20:58 | 63.03335 | 75.15104 | 1778 ft | 130 kts | 307° |
| 2026-04-21 20:58 | 63.04104 | 75.14441 | 1749 ft | 120 kts | 19° |
| 2026-04-21 20:59 | 63.04784 | 75.15487 | 1862 ft | 125 kts | 37° |
| 2026-04-21 20:59 | 63.05640 | 75.15578 | 1785 ft | 132 kts | 328° |
| 2026-04-21 20:59 | 63.06130 | 75.13961 | 1839 ft | 129 kts | 297° |
| 2026-04-21 20:59 | 63.06813 | 75.12697 | 1794 ft | 133 kts | 347° |
| 2026-04-21 21:00 | 63.07701 | 75.12483 | 1847 ft | 126 kts | 13° |
| 2026-04-21 21:00 | 63.08422 | 75.13481 | 1888 ft | 127 kts | 50° |
| 2026-04-21 21:00 | 63.08976 | 75.14985 | 1861 ft | 124 kts | 58° |
| 2026-04-21 21:00 | 63.09456 | 75.16539 | 1857 ft | 125 kts | 52° |
| 2026-04-21 21:01 | 63.10094 | 75.17927 | 1608 ft | 129 kts | 43° |
| 2026-04-21 21:01 | 63.10839 | 75.19002 | 1354 ft | 127 kts | 33° |
| 2026-04-21 21:01 | 63.11544 | 75.20032 | 1255 ft | 120 kts | 26° |
| 2026-04-21 21:01 | 63.12352 | 75.20659 | 1230 ft | 124 kts | 25° |
| 2026-04-21 21:02 | 63.13141 | 75.21474 | 1199 ft | 127 kts | 28° |
| 2026-04-21 21:02 | 63.13937 | 75.22284 | 1124 ft | 124 kts | 32° |
| 2026-04-21 21:02 | 63.14725 | 75.23115 | 987 ft | 127 kts | 26° |
| 2026-04-21 21:02 | 63.15508 | 75.23905 | 857 ft | 122 kts | 27° |
| 2026-04-21 21:03 | 63.16286 | 75.24705 | 721 ft | 125 kts | 27° |
| 2026-04-21 21:03 | 63.17069 | 75.25512 | 582 ft | 123 kts | 27° |
| 2026-04-21 21:03 | 63.17839 | 75.26306 | 470 ft | 113 kts | 27° |
| 2026-04-21 21:03 | 63.18322 | 75.26830 | 458 ft | 1 kts | 55° |
| 2026-04-21 21:04 | 63.18341 | 75.26889 | 457 ft | 0 kts | 55° |